Time;durP1;ratioP1;P1;durP2;ratioP2;P2;SDS_P1;SDS_P2;PMS_P1;PMS_P2;Temp;Humidity;BMP_temperature;BMP_pressure;BME280_temperature;BME280_humidity;BME280_pressure;Samples;Min_cycle;Max_cycle;Signal;HPM_P1;HPM_P2
2023/07/28 00:02:16;;;;;;;5.15;2.70;;;16.90;99.90;;;-144.05;99.16;56957.16;6123543;23;20033;-89
2023/07/28 00:04:42;;;;;;;3.92;3.00;;;16.90;99.90;;;-144.05;99.68;56989.00;6123708;23;20471;-89
2023/07/28 00:07:08;;;;;;;6.80;2.97;;;16.90;99.90;;;-144.05;100.00;56972.03;6123650;23;20010;-89
2023/07/28 00:09:34;;;;;;;4.03;3.10;;;16.80;99.90;;;-144.05;99.95;56978.41;6123319;23;20064;-87
2023/07/28 00:12:01;;;;;;;8.32;3.20;;;16.90;99.90;;;-144.05;99.68;56974.16;6123422;23;20093;-89
2023/07/28 00:14:28;;;;;;;5.90;3.03;;;16.80;99.90;;;-144.05;99.54;56982.66;6125125;23;20009;-89
2023/07/28 00:16:57;;;;;;;8.80;3.30;;;16.80;99.90;;;-144.05;99.66;56967.78;6125156;23;20010;-88
2023/07/28 00:19:23;;;;;;;3.90;3.05;;;16.80;99.90;;;-144.05;100.00;57003.88;6147635;23;20092;-90
2023/07/28 00:21:52;;;;;;;4.15;3.08;;;16.80;99.90;;;-144.05;99.78;56967.78;6123418;23;20013;-88
2023/07/28 00:24:19;;;;;;;3.35;2.97;;;16.80;99.90;;;-144.05;100.00;56978.41;6124712;23;20013;-86
2023/07/28 00:26:45;;;;;;;4.05;3.10;;;16.80;99.90;;;-144.05;99.74;56961.41;6122953;23;20006;-89
2023/07/28 00:29:11;;;;;;;4.22;3.08;;;16.80;99.90;;;-144.05;99.64;56967.78;6124572;23;20010;-89
2023/07/28 00:31:37;;;;;;;4.03;3.13;;;16.80;99.90;;;-144.05;99.85;56967.78;6147726;23;20029;-83
2023/07/28 00:34:03;;;;;;;5.68;3.13;;;16.80;99.90;;;-144.05;100.00;56959.28;6134068;23;20010;-89
2023/07/28 00:36:33;;;;;;;5.15;3.85;;;16.80;99.90;;;-144.05;100.00;56957.16;6123405;23;20089;-88
2023/07/28 00:38:58;;;;;;;5.35;3.45;;;16.80;99.90;;;-144.05;100.00;56995.38;6123196;23;20380;-84
2023/07/28 00:41:24;;;;;;;9.30;3.97;;;16.80;99.90;;;-144.05;99.96;56976.28;6123234;23;20018;-89
2023/07/28 00:43:51;;;;;;;4.88;3.78;;;16.80;99.90;;;-144.05;99.88;56989.00;6125266;23;20013;-89
2023/07/28 00:46:19;;;;;;;6.05;4.18;;;16.80;99.90;;;-144.05;100.00;56980.53;6126190;23;20097;-91
2023/07/28 00:48:45;;;;;;;6.70;3.80;;;16.80;99.90;;;-144.05;100.00;56976.28;6124842;23;20002;-89
2023/07/28 00:51:12;;;;;;;8.13;3.83;;;16.80;99.90;;;-144.05;100.00;56972.03;6126700;23;20017;-86
2023/07/28 00:53:41;;;;;;;5.78;4.03;;;16.80;99.90;;;-144.05;100.00;56965.66;6124822;23;20337;-89
2023/07/28 00:56:17;;;;;;;4.78;2.78;;;16.80;99.90;;;-144.05;100.00;56972.03;6125449;23;20097;-88
2023/07/28 00:58:43;;;;;;;4.85;3.42;;;16.80;99.90;;;-144.05;100.00;56967.78;6125149;23;20021;-89
2023/07/28 01:01:09;;;;;;;4.63;2.97;;;16.80;99.90;;;-144.05;100.00;56974.16;6125254;23;20020;-92
2023/07/28 01:03:38;;;;;;;4.57;3.53;;;16.80;99.90;;;-144.05;100.00;56946.53;6125411;23;20010;-91
2023/07/28 01:07:17;;;;;;;3.58;2.70;;;16.80;99.90;;;-144.05;100.00;56963.53;6125240;23;20085;-89
2023/07/28 01:10:14;;;;;;;4.22;2.88;;;16.80;99.90;;;-144.05;100.00;56969.91;6124576;23;20310;-89
2023/07/28 01:12:40;;;;;;;3.00;2.25;;;16.80;99.90;;;-144.05;100.00;56963.53;6124605;23;20364;-88
2023/07/28 01:15:07;;;;;;;3.55;2.15;;;16.80;99.90;;;-144.05;100.00;56976.28;6124531;23;20088;-90
2023/07/28 01:17:33;;;;;;;2.63;1.80;;;16.80;99.90;;;-144.05;100.00;56984.78;6124733;23;20088;-89
2023/07/28 01:19:59;;;;;;;3.00;1.98;;;16.80;99.90;;;-144.05;100.00;56986.91;6127338;23;20013;-90
2023/07/28 01:23:07;;;;;;;1.92;1.42;;;16.80;99.90;;;-144.05;100.00;56969.91;6124852;23;20010;-91
2023/07/28 01:26:11;;;;;;;2.97;1.73;;;16.80;99.90;;;-144.05;100.00;56967.78;6125011;23;20199;-88
2023/07/28 01:28:41;;;;;;;2.90;1.50;;;16.80;99.90;;;-144.05;100.00;56972.03;6125051;23;20559;-89
2023/07/28 01:31:09;;;;;;;6.10;1.92;;;16.80;99.90;;;-144.05;100.00;57003.88;6124795;23;20005;-88
2023/07/28 01:33:36;;;;;;;1.95;1.60;;;16.90;99.90;;;-144.05;100.00;56965.66;6124709;23;20016;-88
2023/07/28 01:36:03;;;;;;;2.22;1.52;;;16.90;99.90;;;-144.05;100.00;56982.66;6126217;23;20363;-87
2023/07/28 01:38:29;;;;;;;2.85;1.70;;;16.80;99.90;;;-144.05;100.00;56997.50;6124428;23;20009;-88
2023/07/28 01:40:55;;;;;;;1.95;1.45;;;16.80;99.90;;;-144.05;100.00;56995.38;6124211;23;20034;-89
2023/07/28 01:43:23;;;;;;;5.30;1.60;;;16.80;99.90;;;-144.05;100.00;56972.03;6125092;23;20284;-89
2023/07/28 01:45:49;;;;;;;2.17;1.58;;;16.80;99.90;;;-144.05;100.00;56974.16;6100420;23;20042;-88
2023/07/28 01:48:15;;;;;;;2.38;1.48;;;16.80;99.90;;;-144.05;100.00;56952.91;6124462;23;20065;-88
2023/07/28 01:50:41;;;;;;;1.92;1.63;;;16.80;99.90;;;-144.05;100.00;56982.66;6124229;23;20448;-88
2023/07/28 01:53:07;;;;;;;1.85;1.48;;;16.80;99.90;;;-144.05;100.00;56986.91;6124545;23;20006;-85
2023/07/28 01:55:35;;;;;;;2.85;1.38;;;16.80;99.90;;;-144.05;100.00;56989.00;6124401;23;20010;-85
2023/07/28 01:58:03;;;;;;;3.17;1.67;;;16.80;99.90;;;-144.05;100.00;56950.78;6124097;23;20010;-88
2023/07/28 02:00:29;;;;;;;1.95;1.55;;;16.80;99.90;;;-144.05;100.00;56980.53;6124246;23;20038;-88
2023/07/28 02:02:55;;;;;;;1.90;1.48;;;16.80;99.90;;;-144.05;100.00;56991.13;6124588;23;20013;-85
2023/07/28 02:05:21;;;;;;;2.28;1.60;;;16.90;99.90;;;-144.05;100.00;56980.53;6124400;23;20376;-89
2023/07/28 02:07:47;;;;;;;4.45;1.35;;;16.80;99.90;;;-144.05;100.00;56967.78;6124918;23;20089;-89
2023/07/28 02:10:13;;;;;;;2.90;1.70;;;16.90;99.90;;;-144.05;100.00;56999.63;6142117;23;20009;-82
2023/07/28 02:12:39;;;;;;;2.92;1.60;;;16.90;99.90;;;-144.05;100.00;56963.53;6149934;23;20057;-88
2023/07/28 02:15:07;;;;;;;2.40;1.75;;;16.90;99.90;;;-144.05;99.95;56969.91;6125740;23;20060;-86
2023/07/28 02:17:33;;;;;;;7.30;1.67;;;16.90;99.90;;;-144.05;99.92;56991.13;6124344;23;20061;-90
2023/07/28 02:19:59;;;;;;;3.40;1.70;;;16.80;99.90;;;-144.05;100.00;56978.41;6124021;23;20017;-89
2023/07/28 02:22:25;;;;;;;2.03;1.42;;;16.80;99.90;;;-144.05;100.00;56972.03;6123712;23;20044;-89
2023/07/28 02:24:51;;;;;;;3.65;1.65;;;16.90;99.90;;;-144.05;100.00;56993.25;6123856;23;20047;-90
2023/07/28 02:27:17;;;;;;;4.65;1.88;;;16.90;99.90;;;-144.05;100.00;56969.91;6140174;23;20002;-81
2023/07/28 02:29:43;;;;;;;1.65;1.20;;;16.80;99.90;;;-144.05;100.00;56984.78;6141923;23;20052;-89
2023/07/28 02:32:09;;;;;;;2.15;1.50;;;16.90;99.90;;;-144.05;100.00;56963.53;6125392;23;20081;-89
2023/07/28 02:34:35;;;;;;;3.28;1.45;;;16.90;99.90;;;-144.05;99.84;56965.66;6124361;23;20153;-90
2023/07/28 02:37:01;;;;;;;4.15;1.60;;;16.90;99.90;;;-144.05;100.00;56986.91;6124099;23;20453;-89
2023/07/28 02:39:26;;;;;;;2.55;1.58;;;16.90;99.90;;;-144.05;100.00;56976.28;6123787;23;20042;-89
2023/07/28 02:41:52;;;;;;;4.90;1.60;;;16.90;99.90;;;-144.05;100.00;56963.53;6123916;23;20041;-85
2023/07/28 02:44:18;;;;;;;2.03;1.20;;;16.90;99.90;;;-144.05;100.00;56978.41;6125304;23;20006;-86
2023/07/28 02:46:44;;;;;;;1.67;1.30;;;16.90;99.90;;;-144.05;100.00;56972.03;6125091;23;20021;-85
2023/07/28 02:49:10;;;;;;;1.73;1.20;;;16.90;99.90;;;-144.05;100.00;57001.75;6125348;23;20065;-88
2023/07/28 02:51:36;;;;;;;2.25;1.20;;;16.90;99.90;;;-144.05;100.00;56984.78;6123277;23;20006;-88
2023/07/28 02:54:03;;;;;;;2.08;1.00;;;16.90;99.90;;;-144.05;99.99;56997.50;6148185;23;20006;-88
2023/07/28 02:56:34;;;;;;;1.42;1.20;;;16.90;99.90;;;-144.05;100.00;56982.66;6125207;23;20009;-87
2023/07/28 02:59:01;;;;;;;2.75;1.00;;;16.90;99.90;;;-144.05;100.00;56965.66;6123517;23;20017;-88
2023/07/28 03:01:30;;;;;;;2.25;1.30;;;16.90;99.90;;;-144.05;100.00;56984.78;6123436;23;20006;-86
2023/07/28 03:03:56;;;;;;;1.83;1.10;;;17.00;99.90;;;-144.05;100.00;56984.78;6125163;23;19998;-89
2023/07/28 03:06:22;;;;;;;2.92;1.05;;;16.90;99.90;;;-144.05;100.00;56986.91;6123376;23;20002;-88
2023/07/28 03:08:47;;;;;;;2.53;1.17;;;16.90;99.90;;;-144.05;100.00;56972.03;6123267;23;20020;-89
2023/07/28 03:11:13;;;;;;;1.48;0.90;;;16.90;99.90;;;-144.05;100.00;57006.00;6123489;23;20009;-88
2023/07/28 03:13:39;;;;;;;2.70;0.82;;;16.90;99.90;;;-144.05;100.00;56969.91;6123502;23;20014;-88
2023/07/28 03:16:05;;;;;;;3.03;1.10;;;16.90;99.90;;;-144.05;100.00;56982.66;6124956;23;20006;-86
2023/07/28 03:18:31;;;;;;;2.83;0.80;;;17.00;99.90;;;-144.05;100.00;56980.53;6123204;23;20010;-89
2023/07/28 03:20:57;;;;;;;1.05;0.82;;;16.90;99.90;;;-144.05;100.00;56995.38;6123430;23;20667;-90
2023/07/28 03:23:23;;;;;;;4.55;0.93;;;17.00;99.90;;;-144.05;100.00;56946.53;6123419;23;20076;-89
2023/07/28 03:25:48;;;;;;;2.33;1.00;;;16.90;99.90;;;-144.05;100.00;56991.13;6123277;23;20449;-92
2023/07/28 03:28:14;;;;;;;1.15;0.80;;;16.90;99.90;;;-144.05;100.00;56991.13;6124377;23;20013;-88
2023/07/28 03:30:40;;;;;;;1.20;1.05;;;16.90;99.90;;;-144.05;100.00;56978.41;6124930;23;20016;-88
2023/07/28 03:33:06;;;;;;;1.80;1.35;;;17.00;99.90;;;-144.05;100.00;56965.66;6124976;23;20017;-88
2023/07/28 03:35:34;;;;;;;1.10;1.00;;;17.00;99.90;;;-144.05;100.00;56982.66;6123233;23;20010;-89
2023/07/28 03:38:00;;;;;;;1.25;0.88;;;16.90;99.90;;;-144.05;100.00;56989.00;6123501;23;19998;-88
2023/07/28 03:40:26;;;;;;;2.10;1.10;;;17.00;99.90;;;-144.05;100.00;56965.66;6136351;23;20017;-88
2023/07/28 03:42:53;;;;;;;1.45;1.05;;;17.00;99.90;;;-144.05;100.00;56946.53;6154322;23;20397;-88
2023/07/28 03:45:19;;;;;;;3.05;1.27;;;16.90;99.90;;;-144.05;100.00;56967.78;6128539;23;20033;-89
2023/07/28 03:47:45;;;;;;;3.63;1.48;;;16.90;99.90;;;-144.05;100.00;56997.50;6128393;23;20084;-89
2023/07/28 03:50:10;;;;;;;1.45;1.00;;;17.00;99.90;;;-144.05;100.00;56942.28;6154207;23;20013;-87
2023/07/28 03:52:36;;;;;;;2.95;1.27;;;17.00;99.90;;;-144.05;100.00;56961.41;6128899;23;20396;-88
2023/07/28 03:55:03;;;;;;;1.63;0.95;;;17.00;99.90;;;-144.05;100.00;56991.13;6129326;23;20013;-85
2023/07/28 03:57:29;;;;;;;1.33;0.95;;;17.00;99.90;;;-144.05;100.00;56995.38;6129530;23;20029;-88
2023/07/28 03:59:55;;;;;;;2.22;1.00;;;17.00;99.90;;;-144.05;100.00;56982.66;6130547;23;20466;-88
2023/07/28 04:02:21;;;;;;;1.50;1.20;;;17.00;99.90;;;-144.05;100.00;56989.00;6158004;23;20372;-88
2023/07/28 04:04:53;;;;;;;6.82;1.33;;;17.00;99.90;;;-144.05;100.00;56974.16;6131407;23;20093;-89
2023/07/28 04:07:19;;;;;;;2.67;0.90;;;17.00;99.90;;;-144.05;100.00;57001.75;6131899;23;20145;-89
2023/07/28 04:09:45;;;;;;;2.50;1.15;;;17.00;99.90;;;-144.05;100.00;56965.66;6131300;23;20428;-88
2023/07/28 04:12:11;;;;;;;1.33;0.75;;;17.00;99.90;;;-144.05;100.00;56974.16;6130761;23;20316;-85
2023/07/28 04:14:37;;;;;;;2.05;0.85;;;17.00;99.90;;;-144.05;100.00;56982.66;6131029;23;20017;-86
2023/07/28 04:17:03;;;;;;;1.17;0.50;;;17.00;99.90;;;-144.05;100.00;56980.53;6131502;23;20089;-91
2023/07/28 04:19:29;;;;;;;2.35;0.82;;;17.00;99.90;;;-144.05;100.00;56978.41;6132913;23;20037;-87
2023/07/28 04:21:57;;;;;;;0.68;0.65;;;17.10;99.90;;;-144.05;100.00;56972.03;6157814;23;20032;-86
2023/07/28 04:24:23;;;;;;;2.05;0.80;;;17.10;99.90;;;-144.05;100.00;56976.28;6179537;23;20004;-79
2023/07/28 04:26:48;;;;;;;1.88;1.00;;;17.10;99.90;;;-144.05;100.00;56978.41;6142575;23;20033;-89
2023/07/28 04:29:15;;;;;;;1.92;0.70;;;17.10;99.90;;;-144.05;100.00;56989.00;6158400;23;20120;-88
2023/07/28 04:31:41;;;;;;;3.03;0.80;;;17.20;99.90;;;-144.05;100.00;56984.78;6132799;23;20068;-91
2023/07/28 04:34:06;;;;;;;1.60;0.60;;;17.10;99.90;;;-144.05;100.00;56961.41;6132832;23;20005;-90
2023/07/28 04:36:32;;;;;;;3.17;0.75;;;17.10;99.90;;;-144.05;100.00;56974.16;6133055;23;20018;-88
2023/07/28 04:38:58;;;;;;;2.33;0.70;;;17.10;99.90;;;-144.05;100.00;56989.00;6159750;23;20009;-88
2023/07/28 04:41:24;;;;;;;1.48;0.77;;;17.20;99.90;;;-144.05;100.00;56991.13;6127965;23;20052;-89
2023/07/28 04:43:50;;;;;;;0.95;0.88;;;17.20;99.90;;;-144.05;100.00;56989.00;6130142;23;20002;-88
2023/07/28 04:46:19;;;;;;;1.13;1.00;;;17.20;99.90;;;-144.05;100.00;56995.38;6128203;23;20006;-89
2023/07/28 04:48:46;;;;;;;2.70;1.10;;;17.20;99.90;;;-144.05;100.00;57001.75;6129061;23;20002;-88
2023/07/28 04:51:14;;;;;;;4.18;1.20;;;17.20;99.90;;;-144.05;100.00;56976.28;6128023;23;20014;-86
2023/07/28 04:53:42;;;;;;;2.65;1.50;;;17.20;99.90;;;-144.05;100.00;56972.03;6153248;23;20009;-86
2023/07/28 04:56:08;;;;;;;5.45;1.40;;;17.20;99.90;;;-144.05;100.00;56976.28;6128981;23;20053;-89
2023/07/28 04:58:34;;;;;;;1.67;1.35;;;17.30;99.90;;;-144.05;100.00;56999.63;6152115;23;20005;-87
2023/07/28 05:01:01;;;;;;;2.08;1.20;;;17.30;99.90;;;-144.05;99.92;56986.91;6127790;23;20353;-87
2023/07/28 05:03:27;;;;;;;3.45;1.45;;;17.40;99.90;;;-144.05;99.47;56995.38;6128202;23;20006;-90
2023/07/28 05:05:53;;;;;;;3.47;1.23;;;17.40;99.90;;;-144.05;99.42;56959.28;6128615;23;20060;-90
2023/07/28 05:08:18;;;;;;;1.58;1.48;;;17.40;99.90;;;-144.05;99.35;56995.38;6153932;23;20309;-89
2023/07/28 05:10:44;;;;;;;1.10;0.90;;;17.40;99.90;;;-144.05;99.57;57006.00;6153423;23;20041;-85
2023/07/28 05:13:10;;;;;;;1.35;1.08;;;17.40;99.90;;;-144.05;99.90;56997.50;6129207;23;20019;-88
2023/07/28 05:15:36;;;;;;;1.88;1.00;;;17.40;99.90;;;-144.05;99.83;56972.03;6128585;23;20537;-88
2023/07/28 05:18:02;;;;;;;1.90;1.13;;;17.40;99.90;;;-144.05;99.47;56967.78;6128381;23;20005;-89
2023/07/28 05:20:28;;;;;;;1.27;1.08;;;17.50;99.90;;;-144.05;98.56;56980.53;6127951;23;20375;-89
2023/07/28 05:22:54;;;;;;;3.33;1.35;;;17.50;99.90;;;-144.05;98.46;56993.25;6130610;23;20006;-91
2023/07/28 05:25:20;;;;;;;1.70;1.05;;;17.50;99.90;;;-144.05;98.80;57003.88;6128905;23;20017;-89
2023/07/28 05:27:46;;;;;;;1.80;0.90;;;17.50;99.90;;;-144.05;98.73;56993.25;6128523;23;20014;-88
2023/07/28 05:30:12;;;;;;;1.83;1.10;;;17.60;99.90;;;-144.05;97.98;56984.78;6129600;23;20010;-84
2023/07/28 05:32:37;;;;;;;1.40;1.00;;;17.60;99.90;;;-144.05;97.91;56976.28;6134276;23;20058;-88
2023/07/28 05:35:04;;;;;;;1.08;0.98;;;17.60;99.90;;;-144.05;97.58;56995.38;6131498;23;20387;-86
2023/07/28 05:37:30;;;;;;;1.10;0.95;;;17.70;99.90;;;-144.05;97.33;56991.13;6128382;23;20045;-87
2023/07/28 05:39:56;;;;;;;1.05;1.00;;;17.70;99.90;;;-144.05;97.23;56997.50;6134190;23;20014;-88
2023/07/28 05:42:24;;;;;;;1.80;1.13;;;17.70;99.90;;;-144.05;97.31;56997.50;6133995;23;20336;-87
2023/07/28 05:44:52;;;;;;;2.38;1.05;;;17.70;99.90;;;-144.05;96.83;56986.91;6159649;23;20005;-87
2023/07/28 05:47:17;;;;;;;0.82;0.82;;;17.80;99.90;;;-144.05;97.20;56982.66;6132041;23;20009;-85
2023/07/28 05:49:43;;;;;;;0.73;0.60;;;17.80;99.90;;;-144.05;97.08;56999.63;6157717;23;20016;-89
2023/07/28 05:52:09;;;;;;;1.10;0.68;;;17.80;99.90;;;-144.05;96.42;56989.00;6131539;23;20014;-88
2023/07/28 05:54:38;;;;;;;1.75;1.02;;;17.90;99.90;;;-144.05;95.82;56997.50;6142178;23;20016;-77
2023/07/28 05:57:05;;;;;;;1.88;0.68;;;18.10;99.90;;;-144.05;95.35;56982.66;6158520;23;20029;-78
2023/07/28 05:59:31;;;;;;;1.13;0.90;;;18.20;99.90;;;-144.05;95.42;56995.38;6158195;23;20016;-80
2023/07/28 06:01:57;;;;;;;1.38;1.00;;;18.20;99.90;;;-144.05;95.76;56980.53;6152191;23;20258;-88
2023/07/28 06:04:23;;;;;;;2.40;0.82;;;18.30;99.90;;;-144.05;95.04;57018.75;6155021;23;20401;-87
2023/07/28 06:06:49;;;;;;;1.35;0.82;;;18.30;99.90;;;-144.05;94.46;56980.53;6156005;23;20016;-88
2023/07/28 06:09:14;;;;;;;1.60;1.05;;;18.30;99.90;;;-144.05;94.38;56991.13;6130243;23;20005;-86
2023/07/28 06:11:40;;;;;;;1.48;0.80;;;18.30;99.90;;;-144.05;94.46;57016.63;6133017;23;20041;-89
2023/07/28 06:14:06;;;;;;;1.20;0.93;;;18.50;99.90;;;-144.05;94.26;57006.00;6131643;23;20204;-87
2023/07/28 06:16:32;;;;;;;2.22;1.40;;;18.50;99.90;;;-144.05;94.11;57012.38;6131047;23;20013;-86
2023/07/28 06:18:58;;;;;;;3.33;2.13;;;18.50;99.90;;;-144.05;93.63;56967.78;6180507;23;20005;-80
2023/07/28 06:21:24;;;;;;;2.80;2.00;;;18.50;99.90;;;-144.05;93.37;56984.78;6138951;23;20017;-88
2023/07/28 06:23:50;;;;;;;4.13;1.90;;;18.50;99.90;;;-144.05;93.19;56995.38;6156585;23;20001;-87
2023/07/28 06:26:16;;;;;;;2.70;2.10;;;18.50;99.90;;;-144.05;92.84;57010.25;6130137;23;20623;-87
2023/07/28 06:28:45;;;;;;;3.22;2.10;;;18.50;99.90;;;-144.05;93.38;56995.38;6131446;23;20087;-88
2023/07/28 06:31:11;;;;;;;3.58;2.60;;;18.60;99.90;;;-144.05;93.38;57008.13;6106389;23;20017;-88
2023/07/28 06:33:38;;;;;;;4.13;2.40;;;18.50;99.90;;;-144.05;93.50;56993.25;6131332;23;20440;-87
2023/07/28 06:36:05;;;;;;;4.88;3.53;;;18.50;99.90;;;-144.05;93.55;57025.13;6131060;23;20005;-87
2023/07/28 06:38:31;;;;;;;3.22;2.80;;;18.40;99.90;;;-144.05;92.64;56989.00;6130127;23;20009;-87
2023/07/28 06:40:57;;;;;;;3.40;2.67;;;18.60;99.90;;;-144.05;92.58;56999.63;6127905;23;20020;-87
2023/07/28 06:43:23;;;;;;;6.97;4.65;;;18.70;99.90;;;-144.05;91.80;56993.25;6129323;23;20064;-86
2023/07/28 06:45:55;;;;;;;6.07;4.25;;;18.70;99.90;;;-144.05;92.16;56986.91;6126974;23;20006;-86
2023/07/28 06:48:22;;;;;;;6.13;4.53;;;18.60;99.90;;;-144.05;92.63;56974.16;6126532;23;20010;-87
2023/07/28 06:50:48;;;;;;;5.43;3.55;;;18.60;99.90;;;-144.05;92.80;56995.38;6102303;23;20110;-86
2023/07/28 06:53:14;;;;;;;5.05;4.10;;;18.60;99.90;;;-144.05;92.67;57001.75;6125943;23;20006;-86
2023/07/28 06:55:43;;;;;;;6.95;3.85;;;18.70;99.90;;;-144.05;92.82;56991.13;6126255;23;20009;-88
2023/07/28 06:58:10;;;;;;;5.25;3.72;;;18.70;99.90;;;-144.05;92.28;56991.13;6126413;23;20010;-87
2023/07/28 07:00:37;;;;;;;5.78;4.40;;;18.80;99.90;;;-144.05;91.83;57016.63;6126720;23;20038;-88
2023/07/28 07:03:03;;;;;;;4.68;4.10;;;18.80;99.90;;;-144.05;92.12;56997.50;6126445;23;20013;-87
2023/07/28 07:05:29;;;;;;;5.90;4.28;;;18.80;99.90;;;-144.05;91.30;56993.25;6126932;23;20097;-86
2023/07/28 07:07:56;;;;;;;4.85;3.97;;;18.90;99.90;;;-144.05;91.08;57006.00;6126219;23;20013;-87
2023/07/28 07:10:22;;;;;;;4.57;3.88;;;19.00;99.90;;;-144.05;90.28;56995.38;6128036;23;20010;-88
2023/07/28 07:12:48;;;;;;;5.47;3.85;;;19.00;99.90;;;-144.05;90.15;56984.78;6127138;23;20075;-87
2023/07/28 07:15:15;;;;;;;8.63;3.25;;;19.10;99.90;;;-144.05;90.09;56984.78;6126071;23;20017;-87
2023/07/28 07:17:41;;;;;;;5.03;3.40;;;19.10;99.90;;;-144.05;89.66;57020.88;6126104;23;20010;-88
2023/07/28 07:20:10;;;;;;;4.78;3.50;;;19.20;99.90;;;-144.05;89.25;57008.13;6130857;23;19994;-88
2023/07/28 07:22:36;;;;;;;4.43;3.00;;;19.40;99.90;;;-144.05;87.93;57018.75;6135760;23;20013;-85
2023/07/28 07:25:07;;;;;;;5.20;3.75;;;19.50;99.90;;;-144.05;87.85;57001.75;6129551;23;20064;-86
2023/07/28 07:27:33;;;;;;;3.72;3.25;;;19.60;99.90;;;-144.05;87.22;57023.00;6128265;23;20010;-87
2023/07/28 07:29:59;;;;;;;4.53;3.72;;;19.70;99.90;;;-144.05;85.70;56997.50;6129010;23;20009;-88
2023/07/28 07:32:26;;;;;;;6.55;4.03;;;19.70;99.90;;;-144.05;85.02;57023.00;6129677;23;20471;-86
2023/07/28 07:34:54;;;;;;;3.95;3.28;;;19.80;99.90;;;-144.05;85.34;57020.88;6104327;23;20014;-87
2023/07/28 07:37:20;;;;;;;4.72;3.30;;;19.80;99.90;;;-144.05;87.05;57014.50;6105364;23;20013;-90
2023/07/28 07:39:46;;;;;;;4.60;3.50;;;19.70;99.90;;;-144.05;85.39;57040.00;6133392;23;20009;-87
2023/07/28 07:42:13;;;;;;;5.78;4.32;;;19.70;99.90;;;-144.05;85.14;57008.13;6134806;23;20336;-86
2023/07/28 07:44:39;;;;;;;5.72;4.47;;;19.80;99.90;;;-144.05;85.34;57008.13;6132100;23;20010;-87
2023/07/28 07:47:15;;;;;;;8.63;4.85;;;19.70;99.90;;;-144.05;85.71;57001.75;6133450;23;20005;-85
2023/07/28 07:49:42;;;;;;;9.52;5.68;;;19.70;99.90;;;-144.05;85.94;57023.00;6134619;23;20009;-86
2023/07/28 07:52:09;;;;;;;6.15;4.90;;;19.70;99.90;;;-144.05;85.74;57010.25;6133778;23;20002;-86
2023/07/28 07:54:36;;;;;;;8.90;4.90;;;19.70;99.90;;;-144.05;85.56;56995.38;6136898;23;20005;-87
2023/07/28 07:57:04;;;;;;;6.05;4.82;;;19.70;99.90;;;-144.05;85.39;57040.00;6135503;23;20013;-85
2023/07/28 07:59:32;;;;;;;6.25;5.55;;;19.80;99.90;;;-144.05;84.64;56991.13;6133532;23;20054;-86
2023/07/28 08:02:02;;;;;;;6.63;5.47;;;19.70;99.90;;;-144.05;85.99;57006.00;6132796;23;20093;-87
2023/07/28 08:04:28;;;;;;;6.60;5.85;;;19.60;99.90;;;-144.05;86.95;57003.88;6137225;23;20017;-86
2023/07/28 08:06:57;;;;;;;7.38;6.20;;;19.50;99.90;;;-144.05;87.50;57001.75;6134011;23;20009;-85
2023/07/28 08:09:23;;;;;;;6.40;5.50;;;19.60;99.90;;;-144.05;86.37;57012.38;6131437;23;20021;-87
2023/07/28 08:11:50;;;;;;;6.55;5.82;;;19.80;99.90;;;-144.05;84.74;57003.88;6157270;23;20010;-85
2023/07/28 08:14:17;;;;;;;8.02;6.30;;;20.20;99.90;;;-144.05;82.92;57018.75;6134309;23;20029;-87
2023/07/28 08:16:43;;;;;;;8.38;6.35;;;20.40;99.90;;;-144.05;81.27;57023.00;6133781;23;20335;-87
2023/07/28 08:19:15;;;;;;;7.53;6.70;;;20.40;99.90;;;-144.05;81.87;57010.25;6138383;23;20014;-85
2023/07/28 08:21:42;;;;;;;9.18;7.50;;;20.40;99.90;;;-144.05;81.85;57020.88;6108540;23;20014;-85
2023/07/28 08:24:08;;;;;;;10.82;8.68;;;20.20;99.90;;;-144.05;83.15;57016.63;6129374;23;20084;-85
2023/07/28 08:26:34;;;;;;;13.30;10.18;;;20.20;99.90;;;-144.05;84.13;57031.50;6129233;23;20005;-86
2023/07/28 08:29:01;;;;;;;12.32;10.18;;;20.00;99.90;;;-144.05;84.21;57001.75;6129983;23;20009;-87
2023/07/28 08:31:27;;;;;;;16.55;12.57;;;19.90;99.90;;;-144.05;85.17;57003.88;6130829;23;20009;-86
2023/07/28 08:33:56;;;;;;;14.73;12.90;;;19.70;99.90;;;-144.05;85.33;57003.88;6130348;23;20009;-86
2023/07/28 08:36:22;;;;;;;17.95;13.98;;;19.60;99.90;;;-144.05;85.52;57012.38;6129621;23;20093;-86
2023/07/28 08:38:48;;;;;;;18.02;14.77;;;19.70;99.90;;;-144.05;85.73;57014.50;6129420;23;20456;-85
2023/07/28 08:41:14;;;;;;;17.73;14.60;;;19.80;99.90;;;-144.05;84.81;57025.13;6125613;23;20014;-87
2023/07/28 08:43:41;;;;;;;20.02;16.80;;;20.00;99.90;;;-144.05;83.52;57010.25;6125865;23;20057;-86
2023/07/28 08:46:07;;;;;;;25.20;18.33;;;20.10;99.90;;;-144.05;83.06;57003.88;6124958;23;20006;-86
2023/07/28 08:48:37;;;;;;;21.60;17.42;;;20.30;99.90;;;-144.05;82.79;57006.00;6125512;23;20037;-86
2023/07/28 08:51:08;;;;;;;18.55;14.52;;;20.80;99.90;;;-144.05;80.10;57050.63;6125633;23;20017;-87
2023/07/28 08:53:34;;;;;;;17.10;13.77;;;21.30;99.90;;;-144.05;78.23;57010.25;6125942;23;20010;-86
2023/07/28 08:56:00;;;;;;;15.10;12.60;;;21.30;99.90;;;-144.05;77.95;57035.75;6127194;23;20012;-87
2023/07/28 08:58:27;;;;;;;12.75;11.35;;;21.30;99.90;;;-144.05;77.35;57016.63;6158993;23;20010;-87
2023/07/28 09:00:54;;;;;;;16.25;12.60;;;21.30;99.90;;;-144.05;78.50;57018.75;6131689;23;20089;-85
2023/07/28 09:03:21;;;;;;;9.73;8.43;;;21.20;99.90;;;-144.05;79.25;57040.00;6127901;23;20006;-86
2023/07/28 09:05:47;;;;;;;8.98;7.25;;;20.90;99.90;;;-144.05;78.93;57054.88;6135138;23;20006;-87
2023/07/28 09:08:16;;;;;;;11.13;6.97;;;20.80;99.90;;;-144.05;81.08;57048.50;6156386;23;20014;-85
2023/07/28 09:10:49;;;;;;;10.02;8.95;;;20.60;99.90;;;-144.05;80.99;57020.88;6130499;23;20080;-87
2023/07/28 09:13:19;;;;;;;10.48;8.80;;;20.50;99.90;;;-144.05;81.16;57018.75;6128833;23;20020;-86
2023/07/28 09:15:46;;;;;;;9.60;7.97;;;20.40;99.90;;;-144.05;82.13;57023.00;6128036;23;20085;-87
2023/07/28 09:18:18;;;;;;;12.73;10.30;;;20.40;99.90;;;-144.05;82.11;57025.13;6127732;23;20014;-86
2023/07/28 09:20:44;;;;;;;12.75;10.00;;;20.40;99.90;;;-144.05;81.84;57016.63;6129538;23;20002;-86
2023/07/28 09:23:15;;;;;;;13.70;10.70;;;20.70;99.90;;;-144.05;79.77;57025.13;6130685;23;20010;-87
2023/07/28 09:25:41;;;;;;;11.98;9.80;;;20.80;99.90;;;-144.05;79.78;57050.63;6134456;23;20005;-86
2023/07/28 09:28:13;;;;;;;12.27;9.10;;;20.90;99.90;;;-144.05;78.65;57014.50;6107020;23;20290;-87
2023/07/28 09:30:49;;;;;;;10.00;8.50;;;21.00;99.90;;;-144.05;77.69;57035.75;6129003;23;20025;-85
2023/07/28 09:33:31;;;;;;;11.20;9.20;;;21.10;99.90;;;-144.05;77.40;57052.75;6128209;23;20016;-87
2023/07/28 09:36:09;;;;;;;11.30;9.50;;;21.50;99.90;;;-144.05;78.43;57046.38;6127178;23;20013;-86
2023/07/28 09:38:41;;;;;;;11.73;9.50;;;21.50;99.90;;;-144.05;75.58;57027.25;6129212;23;20014;-85
2023/07/28 09:41:10;;;;;;;9.85;7.93;;;22.10;99.90;;;-144.05;72.17;57046.38;6132460;23;20012;-86
2023/07/28 09:43:42;;;;;;;6.70;5.53;;;22.70;99.90;;;-144.05;65.96;57095.22;6134018;23;20430;-88
2023/07/28 09:46:10;;;;;;;5.25;4.75;;;23.40;99.90;;;-144.05;68.34;57090.97;6135950;23;20012;-88
2023/07/28 09:48:43;;;;;;;3.92;3.20;;;23.70;99.90;;;-144.05;66.74;57127.09;6135464;23;20095;-89
2023/07/28 09:51:19;;;;;;;3.80;1.92;;;23.90;99.90;;;-144.05;65.39;57086.72;6135915;23;20016;-88
2023/07/28 09:54:06;;;;;;;3.53;1.20;;;23.90;99.90;;;-144.05;65.82;57095.22;6135175;23;20014;-87
2023/07/28 09:56:34;;;;;;;2.88;1.25;;;23.30;99.90;;;-144.05;67.31;57112.22;6132471;23;20017;-89
2023/07/28 09:59:10;;;;;;;1.83;0.85;;;23.30;99.90;;;-144.05;67.68;57084.59;6140677;23;20009;-86
2023/07/28 10:01:38;;;;;;;1.00;0.70;;;23.10;99.90;;;-144.05;69.88;57084.59;6155577;23;20079;-86
2023/07/28 10:04:06;;;;;;;2.95;0.70;;;22.70;99.90;;;-144.05;73.61;57069.72;6144194;23;20447;-87
2023/07/28 10:06:34;;;;;;;1.48;0.50;;;22.40;99.90;;;-144.05;73.42;57059.09;6131311;23;20017;-86